createdAt,value
2023-01-30T00:00:05.281Z,99.99
2023-01-30T00:01:05.308Z,99.99
2023-01-30T00:02:05.285Z,99.99
2023-01-30T00:03:05.247Z,99.99
2023-01-30T00:04:05.196Z,99.99
2023-01-30T00:05:05.236Z,99.99
2023-01-30T00:06:05.156Z,99.99
2023-01-30T00:07:05.162Z,99.99
2023-01-30T00:08:05.107Z,99.99
2023-01-30T00:09:05.093Z,99.99
2023-01-30T00:10:05.065Z,99.99
2023-01-30T00:11:05.059Z,99.99
2023-01-30T00:12:05.065Z,99.99
2023-01-30T00:13:05.003Z,99.99
2023-01-30T00:14:04.994Z,99.99
2023-01-30T00:15:05.027Z,99.99
2023-01-30T00:16:05.108Z,99.99
2023-01-30T00:17:04.919Z,99.99
2023-01-30T00:18:04.934Z,99.99
2023-01-30T00:19:04.870Z,99.99
2023-01-30T00:20:04.845Z,99.99
2023-01-30T00:21:04.834Z,99.99
2023-01-30T00:22:04.858Z,99.99
2023-01-30T00:23:04.820Z,99.99
2023-01-30T00:24:04.782Z,99.99
2023-01-30T00:25:04.931Z,99.99
2023-01-30T00:26:04.725Z,99.99
2023-01-30T00:27:04.697Z,99.99
2023-01-30T00:28:04.676Z,99.99
2023-01-30T00:29:04.663Z,99.99
2023-01-30T00:30:04.637Z,99.99
2023-01-30T00:31:04.641Z,99.99
2023-01-30T00:32:04.616Z,99.99
2023-01-30T00:33:04.568Z,99.99
2023-01-30T00:34:04.667Z,99.99
2023-01-30T00:35:04.525Z,99.99
2023-01-30T00:36:04.508Z,99.99
2023-01-30T00:38:04.465Z,99.99
2023-01-30T00:39:04.471Z,99.99
2023-01-30T00:40:04.484Z,99.99
2023-01-30T00:41:04.395Z,99.99
2023-01-30T00:42:04.385Z,99.99
2023-01-30T00:43:04.346Z,99.99
2023-01-30T00:44:04.355Z,99.99
2023-01-30T00:45:04.342Z,99.99
2023-01-30T00:46:04.339Z,99.99
2023-01-30T00:47:04.265Z,99.99
2023-01-30T00:48:04.251Z,99.99
2023-01-30T00:49:04.305Z,99.99
2023-01-30T00:50:04.235Z,99.99
2023-01-30T00:51:04.195Z,99.99
2023-01-30T00:52:04.193Z,99.99
2023-01-30T00:53:04.138Z,99.99
2023-01-30T00:54:04.150Z,99.99
2023-01-30T00:55:04.133Z,99.99
2023-01-30T00:56:04.084Z,99.99
2023-01-30T00:57:04.050Z,99.99
2023-01-30T00:58:04.029Z,99.99
2023-01-30T00:59:04.024Z,99.99
2023-01-30T01:00:04.010Z,99.99
2023-01-30T01:01:03.968Z,99.99
2023-01-30T01:02:04.058Z,99.99
2023-01-30T01:03:03.958Z,99.99
2023-01-30T01:04:03.911Z,99.99
2023-01-30T01:05:03.908Z,99.99
2023-01-30T01:06:03.884Z,99.99
2023-01-30T01:07:03.837Z,99.99
2023-01-30T01:08:03.816Z,99.99
2023-01-30T01:09:03.822Z,99.99
2023-01-30T01:10:03.785Z,99.99
2023-01-30T01:11:03.753Z,99.99
2023-01-30T01:12:03.818Z,99.99
2023-01-30T01:13:03.708Z,99.99
2023-01-30T01:14:03.691Z,99.99
2023-01-30T01:15:03.671Z,99.99
2023-01-30T01:16:03.689Z,99.99
2023-01-30T01:17:03.623Z,99.99
2023-01-30T01:18:03.614Z,99.99
2023-01-30T01:19:03.580Z,99.99
2023-01-30T01:20:03.558Z,99.99
2023-01-30T01:21:03.542Z,99.99
2023-01-30T01:22:03.553Z,99.99
2023-01-30T01:23:03.567Z,99.99
2023-01-30T01:24:03.486Z,99.99
2023-01-30T01:25:03.607Z,99.99
2023-01-30T01:26:03.431Z,99.99
2023-01-30T01:27:03.441Z,99.99
2023-01-30T01:28:03.396Z,99.99
2023-01-30T01:29:03.409Z,99.99
2023-01-30T01:30:03.346Z,99.99
2023-01-30T01:31:03.338Z,99.99
2023-01-30T01:32:03.340Z,99.99
2023-01-30T01:33:03.280Z,99.99
2023-01-30T01:34:03.260Z,99.99
2023-01-30T01:35:03.238Z,99.99
2023-01-30T01:36:04.727Z,99.99
2023-01-30T01:37:03.304Z,99.99
2023-01-30T01:38:03.203Z,99.99
2023-01-30T01:39:03.158Z,99.99
2023-01-30T01:40:03.138Z,99.99
2023-01-30T01:41:03.114Z,99.99
2023-01-30T01:42:03.094Z,99.99
2023-01-30T01:43:03.088Z,99.99
2023-01-30T01:44:03.074Z,99.99
2023-01-30T01:45:03.032Z,99.99
2023-01-30T01:46:03.053Z,99.99
2023-01-30T01:47:02.978Z,99.99
2023-01-30T01:48:02.971Z,99.99
2023-01-30T01:49:02.937Z,99.99
2023-01-30T01:50:02.924Z,99.99
2023-01-30T01:51:02.903Z,99.99
2023-01-30T01:52:02.907Z,99.99
2023-01-30T01:53:02.936Z,99.99
2023-01-30T01:54:02.837Z,99.99
2023-01-30T01:55:02.809Z,99.99
2023-01-30T01:56:02.808Z,99.99
2023-01-30T01:57:02.795Z,99.99
2023-01-30T01:58:02.743Z,99.99
2023-01-30T01:59:02.729Z,99.99
2023-01-30T02:00:02.731Z,99.99
2023-01-30T02:01:02.727Z,99.99
2023-01-30T02:02:02.743Z,99.99
2023-01-30T02:03:02.678Z,99.99
2023-01-30T02:04:02.615Z,99.99
2023-01-30T02:05:02.655Z,99.99
2023-01-30T02:06:02.581Z,99.99
2023-01-30T02:07:02.555Z,99.99
2023-01-30T02:08:02.530Z,99.99
2023-01-30T02:09:02.575Z,99.99
2023-01-30T02:10:02.518Z,99.99
2023-01-30T02:11:02.471Z,99.99
2023-01-30T02:12:02.467Z,99.99
2023-01-30T02:13:02.425Z,99.99
2023-01-30T02:14:02.402Z,99.99
2023-01-30T02:15:02.436Z,99.99
2023-01-30T02:16:02.370Z,99.99
2023-01-30T02:17:02.397Z,99.99
2023-01-30T02:18:02.341Z,99.99
2023-01-30T02:19:02.300Z,99.99
2023-01-30T02:20:02.277Z,99.99
2023-01-30T02:21:02.263Z,99.99
2023-01-30T02:22:02.255Z,99.99
2023-01-30T02:23:02.221Z,99.99
2023-01-30T02:24:02.254Z,99.99
2023-01-30T02:25:02.185Z,99.99
2023-01-30T02:26:02.168Z,99.99
2023-01-30T02:27:02.125Z,99.99
2023-01-30T02:28:02.106Z,99.99
2023-01-30T02:29:02.084Z,99.99
2023-01-30T02:30:02.137Z,99.99
2023-01-30T02:31:02.073Z,99.99
2023-01-30T02:32:02.041Z,99.99
2023-01-30T02:33:01.996Z,99.99
2023-01-30T02:34:01.977Z,99.99
2023-01-30T02:35:01.994Z,99.99
2023-01-30T02:36:01.948Z,99.99
2023-01-30T02:37:01.911Z,99.99
2023-01-30T02:38:01.906Z,99.99
2023-01-30T02:39:01.860Z,99.99
2023-01-30T02:40:01.847Z,99.99
2023-01-30T02:41:01.825Z,99.99
2023-01-30T02:42:01.810Z,99.99
2023-01-30T02:43:01.793Z,99.99
2023-01-30T02:44:01.759Z,99.99
2023-01-30T02:45:01.748Z,99.99
2023-01-30T02:46:01.752Z,99.99
2023-01-30T02:47:01.701Z,99.99
2023-01-30T02:48:01.679Z,99.99
2023-01-30T02:49:01.658Z,99.99
2023-01-30T02:50:01.632Z,99.99
2023-01-30T02:51:01.622Z,99.99
2023-01-30T02:52:01.598Z,99.99
2023-01-30T02:53:01.604Z,99.99
2023-01-30T02:54:01.562Z,99.99
2023-01-30T02:55:01.527Z,99.99
2023-01-30T02:56:01.515Z,99.99
2023-01-30T02:57:01.484Z,99.99
2023-01-30T02:58:01.466Z,99.99
2023-01-30T02:59:01.439Z,99.99
2023-01-30T03:00:01.428Z,99.99
2023-01-30T03:01:01.437Z,99.99
2023-01-30T03:02:01.375Z,99.99
2023-01-30T03:03:01.409Z,99.99
2023-01-30T03:04:01.336Z,99.99
2023-01-30T03:05:01.312Z,99.99
2023-01-30T03:06:01.334Z,99.99
2023-01-30T03:07:01.306Z,99.99
2023-01-30T03:08:01.280Z,99.99
2023-01-30T03:09:01.223Z,99.99
2023-01-30T03:10:01.221Z,99.99
2023-01-30T03:11:01.180Z,99.99
2023-01-30T03:12:01.163Z,99.99
2023-01-30T03:13:01.169Z,99.99
2023-01-30T03:14:01.138Z,99.99
2023-01-30T03:15:01.098Z,99.99
2023-01-30T03:16:01.125Z,99.99
2023-01-30T03:17:01.053Z,99.99
2023-01-30T03:18:01.118Z,99.99
2023-01-30T03:19:01.029Z,99.99
2023-01-30T03:20:00.996Z,99.99
2023-01-30T03:21:00.995Z,99.99
2023-01-30T03:22:00.975Z,99.99
2023-01-30T03:23:00.979Z,99.99
2023-01-30T03:24:00.901Z,99.99
2023-01-30T03:25:00.888Z,99.99
2023-01-30T03:26:00.860Z,99.99
2023-01-30T03:27:00.900Z,99.99
2023-01-30T03:28:00.854Z,99.99
2023-01-30T03:29:00.827Z,99.99
2023-01-30T03:30:00.810Z,99.99
2023-01-30T03:31:00.835Z,99.99
2023-01-30T03:32:00.783Z,99.99
2023-01-30T03:33:00.721Z,99.99
2023-01-30T03:34:00.718Z,99.99
2023-01-30T03:35:00.707Z,99.99
2023-01-30T03:36:00.652Z,99.99
2023-01-30T03:37:00.635Z,99.99
2023-01-30T03:38:00.606Z,99.99
2023-01-30T03:39:00.588Z,99.99
2023-01-30T03:40:00.616Z,99.99
2023-01-30T03:41:00.542Z,99.99
2023-01-30T03:42:00.528Z,99.99
2023-01-30T03:43:00.508Z,99.99
2023-01-30T03:44:00.501Z,99.99
2023-01-30T03:45:00.465Z,99.99
2023-01-30T03:46:00.487Z,99.99
2023-01-30T03:47:00.426Z,99.99
2023-01-30T03:48:00.401Z,99.99
2023-01-30T03:49:00.377Z,99.99
2023-01-30T03:50:00.358Z,99.99
2023-01-30T03:51:00.372Z,99.99
2023-01-30T03:52:00.316Z,99.99
2023-01-30T03:53:00.296Z,99.99
2023-01-30T03:54:00.272Z,99.99
2023-01-30T03:55:00.252Z,99.99
2023-01-30T03:56:00.232Z,99.99
2023-01-30T03:57:00.219Z,99.99
2023-01-30T03:58:00.188Z,99.99
2023-01-30T03:59:00.170Z,99.99
2023-01-30T04:00:00.163Z,99.99
2023-01-30T04:01:00.163Z,99.99
2023-01-30T04:02:00.109Z,99.99
2023-01-30T04:03:00.111Z,99.99
2023-01-30T04:04:00.116Z,99.99
2023-01-30T04:05:00.043Z,99.99
2023-01-30T04:06:00.024Z,99.99
2023-01-30T04:07:00.005Z,99.99
2023-01-30T04:08:00.005Z,99.99
2023-01-30T04:09:00.084Z,99.99
2023-01-30T04:09:59.971Z,99.99
2023-01-30T04:10:59.921Z,99.99
2023-01-30T04:11:59.896Z,99.99
2023-01-30T04:12:59.876Z,99.99
2023-01-30T04:13:59.866Z,99.99
2023-01-30T04:14:59.861Z,99.99
2023-01-30T04:15:59.844Z,99.99
2023-01-30T04:16:59.837Z,99.99
2023-01-30T04:17:59.776Z,99.99
2023-01-30T04:18:59.760Z,99.99
2023-01-30T04:19:59.736Z,99.99
2023-01-30T04:20:59.748Z,99.99
2023-01-30T04:21:59.699Z,99.99
2023-01-30T04:22:59.688Z,99.99
2023-01-30T04:23:59.684Z,99.99
2023-01-30T04:24:59.680Z,99.99
2023-01-30T04:25:59.615Z,99.99
2023-01-30T04:26:59.589Z,99.99
2023-01-30T04:27:59.568Z,99.99
2023-01-30T04:28:59.556Z,99.99
2023-01-30T04:29:59.579Z,99.99
2023-01-30T04:30:59.533Z,99.99
2023-01-30T04:31:59.491Z,99.99
2023-01-30T04:32:59.464Z,99.99
2023-01-30T04:33:59.451Z,99.99
2023-01-30T04:34:59.431Z,99.99
2023-01-30T04:35:59.422Z,99.99
2023-01-30T04:36:59.405Z,99.99
2023-01-30T04:37:59.365Z,99.99
2023-01-30T04:38:59.353Z,99.99
2023-01-30T04:39:59.374Z,99.99
2023-01-30T04:40:59.311Z,99.99
2023-01-30T04:41:59.309Z,99.99
2023-01-30T04:42:59.290Z,99.99
2023-01-30T04:43:59.327Z,99.99
2023-01-30T04:44:59.233Z,99.99
2023-01-30T04:45:59.196Z,99.99
2023-01-30T04:46:59.200Z,99.99
2023-01-30T04:47:59.154Z,99.99
2023-01-30T04:48:59.140Z,99.99
2023-01-30T04:49:59.172Z,99.99
2023-01-30T04:50:59.119Z,99.99
2023-01-30T04:51:59.098Z,99.99
2023-01-30T04:52:59.057Z,99.99
2023-01-30T04:53:59.040Z,99.99
2023-01-30T04:54:59.015Z,99.99
2023-01-30T04:55:59.017Z,99.99
2023-01-30T04:56:58.980Z,99.99
2023-01-30T04:57:58.951Z,99.99
2023-01-30T04:58:58.987Z,99.99
2023-01-30T04:59:58.916Z,99.99
2023-01-30T05:00:58.965Z,99.99
2023-01-30T05:01:58.989Z,99.99
2023-01-30T05:02:58.853Z,99.99
2023-01-30T05:03:58.828Z,99.99
2023-01-30T05:04:58.814Z,99.99
2023-01-30T05:05:58.786Z,99.99
2023-01-30T05:06:58.801Z,99.99
2023-01-30T05:07:58.749Z,99.99
2023-01-30T05:08:58.736Z,99.99
2023-01-30T05:09:58.716Z,99.99
2023-01-30T05:10:58.691Z,99.99
2023-01-30T05:11:58.706Z,99.99
2023-01-30T05:12:58.654Z,99.99
2023-01-30T05:13:58.627Z,99.99
2023-01-30T05:14:58.622Z,99.99
2023-01-30T05:15:58.617Z,99.99
2023-01-30T05:16:58.576Z,99.99
2023-01-30T05:17:58.571Z,99.99
2023-01-30T05:18:58.527Z,99.99
2023-01-30T05:19:58.510Z,99.99
2023-01-30T05:20:58.520Z,99.99
2023-01-30T05:21:58.465Z,99.99
2023-01-30T05:22:58.446Z,99.99
2023-01-30T05:23:58.479Z,99.99
2023-01-30T05:24:58.412Z,99.99
2023-01-30T05:25:58.385Z,99.99
2023-01-30T05:26:58.365Z,99.99
2023-01-30T05:27:58.370Z,99.99
2023-01-30T05:28:58.327Z,99.99
2023-01-30T05:29:58.302Z,99.99
2023-01-30T05:30:58.373Z,99.99
2023-01-30T05:31:58.300Z,99.99
2023-01-30T05:32:58.245Z,99.99
2023-01-30T05:33:58.222Z,99.99
2023-01-30T05:34:58.208Z,99.99
2023-01-30T05:35:58.190Z,99.99
2023-01-30T05:36:58.208Z,99.99
2023-01-30T05:37:59.497Z,99.99
2023-01-30T05:38:58.123Z,99.99
2023-01-30T05:39:58.101Z,99.99
2023-01-30T05:40:58.087Z,99.99
2023-01-30T05:41:58.072Z,99.99
2023-01-30T05:42:58.047Z,99.99
2023-01-30T05:43:58.071Z,99.99
2023-01-30T05:44:58.003Z,99.99
2023-01-30T05:45:57.980Z,99.99
2023-01-30T05:46:58.032Z,99.99
2023-01-30T05:48:01.292Z,99.99
2023-01-30T05:48:57.947Z,99.99
2023-01-30T05:49:57.900Z,99.99
2023-01-30T05:50:57.895Z,99.99
2023-01-30T05:51:57.890Z,99.99
2023-01-30T05:52:57.849Z,99.99
2023-01-30T05:53:57.826Z,99.99
2023-01-30T05:54:57.837Z,99.99
2023-01-30T05:55:57.784Z,99.99
2023-01-30T05:56:57.757Z,99.99
2023-01-30T05:57:57.738Z,99.99
2023-01-30T05:58:57.722Z,99.99
2023-01-30T05:59:57.696Z,99.99
2023-01-30T06:00:57.714Z,99.99
2023-01-30T06:01:57.671Z,99.99
2023-01-30T06:02:57.684Z,99.99
2023-01-30T06:03:57.734Z,99.80
2023-01-30T06:04:57.597Z,99.99
2023-01-30T06:05:57.620Z,99.99
2023-01-30T06:06:57.560Z,99.91
2023-01-30T06:07:57.531Z,99.99
2023-01-30T06:08:57.558Z,99.99
2023-01-30T06:09:57.493Z,99.99
2023-01-30T06:10:57.528Z,99.99
2023-01-30T06:11:57.454Z,99.99
2023-01-30T06:12:57.435Z,99.99
2023-01-30T06:13:57.415Z,99.99
2023-01-30T06:14:57.395Z,99.99
2023-01-30T06:15:57.411Z,99.99
2023-01-30T06:16:57.396Z,99.99
2023-01-30T06:17:57.334Z,99.99
2023-01-30T06:18:57.318Z,99.99
2023-01-30T06:19:57.292Z,99.99
2023-01-30T06:20:57.311Z,99.99
2023-01-30T06:21:57.309Z,99.99
2023-01-30T06:22:57.259Z,99.99
2023-01-30T06:23:57.212Z,99.99
2023-01-30T06:24:57.196Z,99.99
2023-01-30T06:25:57.168Z,99.99
2023-01-30T06:26:57.155Z,99.99
2023-01-30T06:27:57.198Z,99.99
2023-01-30T06:28:57.120Z,99.99
2023-01-30T06:29:57.122Z,99.99
2023-01-30T06:30:57.233Z,99.99
2023-01-30T06:31:57.053Z,99.99
2023-01-30T06:32:57.051Z,99.99
2023-01-30T06:33:57.099Z,99.99
2023-01-30T06:34:56.996Z,99.99
2023-01-30T06:35:56.981Z,99.99
2023-01-30T06:36:56.983Z,99.99
2023-01-30T06:37:56.929Z,99.99
2023-01-30T06:38:56.912Z,99.99
2023-01-30T06:39:56.912Z,99.99
2023-01-30T06:40:56.873Z,99.99
2023-01-30T06:41:56.848Z,99.70
2023-01-30T06:42:56.832Z,99.29
2023-01-30T06:43:56.824Z,99.18
2023-01-30T06:44:56.850Z,99.60
2023-01-30T06:45:56.810Z,99.99
2023-01-30T06:46:56.780Z,99.29
2023-01-30T06:47:56.724Z,99.44
2023-01-30T06:48:56.750Z,99.44
2023-01-30T06:49:56.709Z,99.99
2023-01-30T06:50:56.695Z,99.60
2023-01-30T06:51:56.646Z,98.56
2023-01-30T06:52:56.672Z,98.77
2023-01-30T06:53:56.611Z,98.93
2023-01-30T06:54:56.602Z,99.60
2023-01-30T06:55:56.658Z,99.49
2023-01-30T06:56:56.552Z,99.80
2023-01-30T06:57:56.525Z,99.80
2023-01-30T06:58:56.510Z,98.52
2023-01-30T06:59:56.485Z,99.39
2023-01-30T07:00:56.521Z,99.39
2023-01-30T07:01:56.608Z,98.77
2023-01-30T07:02:56.430Z,99.29
2023-01-30T07:03:56.473Z,99.29
2023-01-30T07:04:56.387Z,98.35
2023-01-30T07:05:56.371Z,97.07
2023-01-30T07:06:56.347Z,97.74
2023-01-30T07:07:56.350Z,97.59
2023-01-30T07:08:56.309Z,97.74
2023-01-30T07:10:07.228Z,97.38
2023-01-30T07:10:56.393Z,97.84
2023-01-30T07:11:56.287Z,96.91
2023-01-30T07:12:56.228Z,97.32
2023-01-30T07:13:56.288Z,96.29
2023-01-30T07:14:56.197Z,95.73
2023-01-30T07:15:56.165Z,96.29
2023-01-30T07:16:56.239Z,97.26
2023-01-30T07:17:56.158Z,96.39
2023-01-30T07:18:56.154Z,95.87
2023-01-30T07:19:56.152Z,96.29
2023-01-30T07:20:56.081Z,96.19
2023-01-30T07:21:56.054Z,95.25
2023-01-30T07:22:56.068Z,95.46
2023-01-30T07:23:56.009Z,96.12
2023-01-30T07:24:55.987Z,95.61
2023-01-30T07:25:55.969Z,95.81
2023-01-30T07:26:55.961Z,95.15
2023-01-30T07:27:55.959Z,95.36
2023-01-30T07:28:55.904Z,95.25
2023-01-30T07:29:55.905Z,96.08
2023-01-30T07:30:55.912Z,95.46
2023-01-30T07:31:55.899Z,95.25
2023-01-30T07:32:55.826Z,95.29
2023-01-30T07:33:55.830Z,93.91
2023-01-30T07:34:55.803Z,94.32
2023-01-30T07:35:55.779Z,93.49
2023-01-30T07:36:55.767Z,93.18
2023-01-30T07:37:55.725Z,94.22
2023-01-30T07:38:55.762Z,94.26
2023-01-30T07:39:55.689Z,94.47
2023-01-30T07:40:55.750Z,93.29
2023-01-30T07:41:57.006Z,93.49
2023-01-30T07:42:55.619Z,94.57
2023-01-30T07:43:55.625Z,94.26
2023-01-30T07:44:55.590Z,94.22
2023-01-30T07:45:55.564Z,93.91
2023-01-30T07:46:55.593Z,94.57
2023-01-30T07:47:55.523Z,94.26
2023-01-30T07:48:55.504Z,94.57
2023-01-30T07:49:55.549Z,94.47
2023-01-30T07:50:55.484Z,94.98
2023-01-30T07:51:55.506Z,94.78
2023-01-30T07:52:55.483Z,94.26
2023-01-30T07:53:55.509Z,94.43
2023-01-30T07:54:55.667Z,93.29
2023-01-30T07:55:55.357Z,92.87
2023-01-30T07:56:55.541Z,92.83
2023-01-30T07:57:55.379Z,93.29
2023-01-30T07:58:55.299Z,92.97
2023-01-30T07:59:55.287Z,93.91
2023-01-30T08:00:55.343Z,93.18
2023-01-30T08:01:55.262Z,92.87
2023-01-30T08:02:55.241Z,92.11
2023-01-30T08:03:55.196Z,92.05
2023-01-30T08:04:55.237Z,91.53
2023-01-30T08:05:55.154Z,90.66
2023-01-30T08:06:55.140Z,91.32
2023-01-30T08:07:55.141Z,92.05
2023-01-30T08:08:55.097Z,91.53
2023-01-30T08:09:55.084Z,91.32
2023-01-30T08:10:55.089Z,91.32
2023-01-30T08:11:55.071Z,91.74
2023-01-30T08:12:55.016Z,91.84
2023-01-30T08:13:55.033Z,91.94
2023-01-30T08:14:54.984Z,90.97
2023-01-30T08:15:54.992Z,91.74
2023-01-30T08:16:54.961Z,92.15
2023-01-30T08:17:54.936Z,91.74
2023-01-30T08:18:54.893Z,91.53
2023-01-30T08:19:54.869Z,92.05
2023-01-30T08:20:54.852Z,91.53
2023-01-30T08:21:54.832Z,91.74
2023-01-30T08:22:54.810Z,91.53
2023-01-30T08:23:54.789Z,91.38
2023-01-30T08:24:54.769Z,91.32
2023-01-30T08:25:54.758Z,90.97
2023-01-30T08:26:54.766Z,90.45
2023-01-30T08:27:54.705Z,90.04
2023-01-30T08:28:54.692Z,90.56
2023-01-30T08:29:54.674Z,91.11
2023-01-30T08:30:54.786Z,91.63
2023-01-30T08:31:54.654Z,90.08
2023-01-30T08:32:54.654Z,90.19
2023-01-30T08:33:54.602Z,90.35
2023-01-30T08:34:54.571Z,91.90
2023-01-30T08:35:54.545Z,91.80
2023-01-30T08:36:54.529Z,91.42
2023-01-30T08:37:54.513Z,91.53
2023-01-30T08:38:54.496Z,91.63
2023-01-30T08:39:54.479Z,91.11
2023-01-30T08:40:54.447Z,89.83
2023-01-30T08:41:54.425Z,89.94
2023-01-30T08:42:54.411Z,90.29
2023-01-30T08:43:54.416Z,89.87
2023-01-30T08:44:54.370Z,90.80
2023-01-30T08:45:54.350Z,90.35
2023-01-30T08:46:54.330Z,89.62
2023-01-30T08:47:54.304Z,89.42
2023-01-30T08:48:54.359Z,89.11
2023-01-30T08:49:54.286Z,89.73
2023-01-30T08:50:54.247Z,90.08
2023-01-30T08:51:54.235Z,90.29
2023-01-30T08:52:54.206Z,89.25
2023-01-30T08:53:54.212Z,89.83
2023-01-30T08:54:54.197Z,90.08
2023-01-30T08:55:54.162Z,89.36
2023-01-30T08:56:54.131Z,90.08
2023-01-30T08:57:54.127Z,89.52
2023-01-30T08:58:54.112Z,89.73
2023-01-30T08:59:54.100Z,89.73
2023-01-30T09:00:54.088Z,89.42
2023-01-30T09:01:54.027Z,89.83
2023-01-30T09:02:54.015Z,89.11
2023-01-30T09:03:53.988Z,88.28
2023-01-30T09:04:54.007Z,88.49
2023-01-30T09:05:53.942Z,89.11
2023-01-30T09:06:53.935Z,89.62
2023-01-30T09:07:53.931Z,89.62
2023-01-30T09:08:53.878Z,89.11
2023-01-30T09:09:53.860Z,89.11
2023-01-30T09:10:53.840Z,88.64
2023-01-30T09:11:53.852Z,88.28
2023-01-30T09:12:53.837Z,88.80
2023-01-30T09:13:53.788Z,89.01
2023-01-30T09:14:53.762Z,88.28
2023-01-30T09:15:53.736Z,87.56
2023-01-30T09:16:53.896Z,88.49
2023-01-30T09:17:53.731Z,87.25
2023-01-30T09:18:53.711Z,86.83
2023-01-30T09:19:53.662Z,86.52
2023-01-30T09:20:53.944Z,85.18
2023-01-30T09:21:53.621Z,85.97
2023-01-30T09:22:53.648Z,85.14
2023-01-30T09:23:53.580Z,85.14
2023-01-30T09:24:53.570Z,85.35
2023-01-30T09:25:53.543Z,85.35
2023-01-30T09:26:53.529Z,85.35
2023-01-30T09:27:53.500Z,85.55
2023-01-30T09:28:53.496Z,84.94
2023-01-30T09:29:53.618Z,84.63
2023-01-30T09:30:53.589Z,83.28
2023-01-30T09:31:53.494Z,84.28
2023-01-30T09:32:53.418Z,84.69
2023-01-30T09:33:53.393Z,85.00
2023-01-30T09:34:53.361Z,85.24
2023-01-30T09:35:53.407Z,84.69
2023-01-30T09:36:53.488Z,85.45
2023-01-30T09:37:53.399Z,85.86
2023-01-30T09:38:53.336Z,86.18
2023-01-30T09:39:53.260Z,86.38
2023-01-30T09:40:53.251Z,87.10
2023-01-30T09:41:53.253Z,86.49
2023-01-30T09:42:53.223Z,85.97
2023-01-30T09:43:53.222Z,85.91
2023-01-30T09:44:53.159Z,85.14
2023-01-30T09:45:53.180Z,85.35
2023-01-30T09:46:53.256Z,85.45
2023-01-30T09:47:53.221Z,85.80
2023-01-30T09:48:53.081Z,86.07
2023-01-30T09:49:53.060Z,86.42
2023-01-30T09:50:53.041Z,86.52
2023-01-30T09:51:53.091Z,87.15
2023-01-30T09:52:53.003Z,87.15
2023-01-30T09:53:52.985Z,86.52
2023-01-30T09:54:52.966Z,86.21
2023-01-30T09:55:52.941Z,85.97
2023-01-30T09:56:52.932Z,86.32
2023-01-30T09:57:52.950Z,87.25
2023-01-30T09:58:52.884Z,86.73
2023-01-30T09:59:52.865Z,86.28
2023-01-30T10:00:52.837Z,86.73
2023-01-30T10:01:52.850Z,86.38
2023-01-30T10:02:52.822Z,86.07
2023-01-30T10:03:52.835Z,86.63
2023-01-30T10:05:01.356Z,86.28
2023-01-30T10:05:52.758Z,86.07
2023-01-30T10:06:52.911Z,85.86
2023-01-30T10:07:52.771Z,86.38
2023-01-30T10:08:52.678Z,86.28
2023-01-30T10:09:52.721Z,87.15
2023-01-30T10:11:04.348Z,86.18
2023-01-30T10:11:52.627Z,85.18
2023-01-30T10:12:52.601Z,86.07
2023-01-30T10:13:52.607Z,86.18
2023-01-30T10:14:52.567Z,86.49
2023-01-30T10:15:52.703Z,86.07
2023-01-30T10:16:52.525Z,86.28
2023-01-30T10:17:52.575Z,85.97
2023-01-30T10:18:52.510Z,86.49
2023-01-30T10:19:52.492Z,85.66
2023-01-30T10:20:52.440Z,86.28
2023-01-30T10:21:52.888Z,86.07
2023-01-30T10:22:52.410Z,85.55
2023-01-30T10:23:52.395Z,85.35
2023-01-30T10:24:52.357Z,85.55
2023-01-30T10:25:52.397Z,85.14
2023-01-30T10:26:52.357Z,85.52
2023-01-30T10:27:52.345Z,85.14
2023-01-30T10:28:58.876Z,85.55
2023-01-30T10:29:52.273Z,85.66
2023-01-30T10:30:52.321Z,86.18
2023-01-30T10:31:52.289Z,85.35
2023-01-30T10:32:52.203Z,86.59
2023-01-30T10:33:52.196Z,85.35
2023-01-30T10:34:52.200Z,85.45
2023-01-30T10:35:52.176Z,85.45
2023-01-30T10:36:52.163Z,84.94
2023-01-30T10:37:52.100Z,85.24
2023-01-30T10:38:52.095Z,86.18
2023-01-30T10:39:55.885Z,85.97
2023-01-30T10:40:52.280Z,85.55
2023-01-30T10:41:52.023Z,85.76
2023-01-30T10:42:52.001Z,86.49
2023-01-30T10:43:51.985Z,86.59
2023-01-30T10:44:51.963Z,86.07
2023-01-30T10:45:51.974Z,86.18
2023-01-30T10:46:52.140Z,86.07
2023-01-30T10:47:51.906Z,86.79
2023-01-30T10:48:51.888Z,86.79
2023-01-30T10:49:51.867Z,86.69
2023-01-30T10:50:51.891Z,87.00
2023-01-30T10:51:51.834Z,86.90
2023-01-30T10:52:51.805Z,85.55
2023-01-30T10:53:51.795Z,85.24
2023-01-30T10:54:51.763Z,84.73
2023-01-30T10:55:51.850Z,84.89
2023-01-30T10:56:51.722Z,84.73
2023-01-30T10:57:51.717Z,85.52
2023-01-30T10:58:51.707Z,85.62
2023-01-30T10:59:51.702Z,86.03
2023-01-30T11:00:51.648Z,85.00
2023-01-30T11:01:51.652Z,85.86
2023-01-30T11:02:51.895Z,85.83
2023-01-30T11:03:51.591Z,85.41
2023-01-30T11:04:51.563Z,85.62
2023-01-30T11:05:51.545Z,85.31
2023-01-30T11:06:51.522Z,85.00
2023-01-30T11:07:51.560Z,86.13
2023-01-30T11:08:51.495Z,87.31
2023-01-30T11:09:51.465Z,89.07
2023-01-30T11:10:51.458Z,88.07
2023-01-30T11:11:51.433Z,88.59
2023-01-30T11:12:51.410Z,89.42
2023-01-30T11:13:51.468Z,90.56
2023-01-30T11:14:51.363Z,90.56
2023-01-30T11:15:51.386Z,90.04
2023-01-30T11:16:51.374Z,91.69
2023-01-30T11:17:51.381Z,89.62
2023-01-30T11:19:18.814Z,87.46
2023-01-30T11:19:51.267Z,86.79
2023-01-30T11:20:51.263Z,86.69
2023-01-30T11:21:51.243Z,85.52
2023-01-30T11:22:51.228Z,85.83
2023-01-30T11:23:51.195Z,86.86
2023-01-30T11:24:51.173Z,85.21
2023-01-30T11:25:59.250Z,85.99
2023-01-30T11:26:51.191Z,86.03
2023-01-30T11:27:51.111Z,85.00
2023-01-30T11:28:51.137Z,83.97
2023-01-30T11:29:51.081Z,84.65
2023-01-30T11:30:51.070Z,85.72
2023-01-30T11:31:51.271Z,86.49
2023-01-30T11:32:51.009Z,84.63
2023-01-30T11:33:50.996Z,85.45
2023-01-30T11:34:51.003Z,86.90
2023-01-30T11:35:50.952Z,86.18
2023-01-30T11:36:50.932Z,86.59
2023-01-30T11:37:50.911Z,87.10
2023-01-30T11:38:50.893Z,88.59
2023-01-30T11:39:50.975Z,88.59
2023-01-30T11:40:50.852Z,88.59
2023-01-30T11:41:50.831Z,91.74
2023-01-30T11:42:50.818Z,91.57
2023-01-30T11:43:50.799Z,91.78
2023-01-30T11:44:50.783Z,91.99
2023-01-30T11:45:50.874Z,91.26
2023-01-30T11:46:50.803Z,92.19
2023-01-30T11:47:57.975Z,92.71
2023-01-30T11:49:09.049Z,92.71
2023-01-30T11:50:00.716Z,93.33
2023-01-30T11:50:50.724Z,92.81
2023-01-30T11:51:50.638Z,93.02
2023-01-30T11:52:50.647Z,94.41
2023-01-30T11:53:50.598Z,92.55
2023-01-30T11:54:50.568Z,93.33
2023-01-30T11:56:03.037Z,93.02
2023-01-30T11:56:50.549Z,95.44
2023-01-30T11:57:50.541Z,94.98
2023-01-30T11:58:50.555Z,95.19
2023-01-30T11:59:50.469Z,93.12
2023-01-30T12:00:50.452Z,92.09
2023-01-30T12:01:50.455Z,92.25
2023-01-30T12:02:50.437Z,93.60
2023-01-30T12:03:50.423Z,94.32
2023-01-30T12:04:50.366Z,94.26
2023-01-30T12:05:50.352Z,94.68
2023-01-30T12:06:50.343Z,93.49
2023-01-30T12:07:50.306Z,93.60
2023-01-30T12:08:50.314Z,92.36
2023-01-30T12:09:50.306Z,92.83
2023-01-30T12:10:50.260Z,92.36
2023-01-30T12:11:50.225Z,92.67
2023-01-30T12:12:50.209Z,90.10
2023-01-30T12:13:50.190Z,90.25
2023-01-30T12:14:50.281Z,89.94
2023-01-30T12:15:50.150Z,91.11
2023-01-30T12:16:50.131Z,90.56
2023-01-30T12:17:50.111Z,89.52
2023-01-30T12:18:50.200Z,89.46
2023-01-30T12:19:50.226Z,91.74
2023-01-30T12:20:50.168Z,92.40
2023-01-30T12:21:50.026Z,93.54
2023-01-30T12:22:50.002Z,94.26
2023-01-30T12:23:50.013Z,95.34
2023-01-30T12:24:49.970Z,93.27
2023-01-30T12:25:49.947Z,93.33
2023-01-30T12:26:49.956Z,93.95
2023-01-30T12:27:49.924Z,94.72
2023-01-30T12:28:49.904Z,94.10
2023-01-30T12:29:49.865Z,94.93
2023-01-30T12:30:49.846Z,94.62
2023-01-30T12:31:49.835Z,94.66
2023-01-30T12:32:49.809Z,95.18
2023-01-30T12:33:49.816Z,95.39
2023-01-30T12:34:49.761Z,95.18
2023-01-30T12:35:49.769Z,95.01
2023-01-30T12:36:49.729Z,95.12
2023-01-30T12:37:49.706Z,94.70
2023-01-30T12:38:49.683Z,94.91
2023-01-30T12:39:49.657Z,94.08
2023-01-30T12:40:49.672Z,93.46
2023-01-30T12:41:49.643Z,92.49
2023-01-30T12:42:49.594Z,91.61
2023-01-30T12:43:49.579Z,90.47
2023-01-30T12:44:49.556Z,90.37
2023-01-30T12:45:49.556Z,90.99
2023-01-30T12:46:49.565Z,90.64
2023-01-30T12:47:49.496Z,90.84
2023-01-30T12:49:07.696Z,91.78
2023-01-30T12:49:49.460Z,91.67
2023-01-30T12:50:49.432Z,90.12
2023-01-30T12:51:49.438Z,91.16
2023-01-30T12:52:49.400Z,89.15